Accueil
METAR-TAF:

METAR-TAF

Aéroports :

Lyndonville, Vermont, États-Unis

latitude: 44-34-09N, longitude: 072-01-05W, altitude: 362 m

Observation

Le bulletin a été fait il y a 13 minutes, à 01:35 UTC
Vent 12 kt de sud-ouest avec des rafales jusqu'à 19 kt, variant entre sud/sud-ouest et ouest
Température -2°C
Humidité 80%
Pression 998 hPa
Visibilité: 16.1 km
Ciel couvert à une hauteur de 1800 ft

METAR: KCDA 180135Z AUTO 23012G19KT 210V270 10SM OVC018 M02/M05 A2947 RMK AO2 T10201047

Heure: 20:48 (01:48 UTC)


TAF: absent

Observations et prévisions météorologiques de plus de 4000 aéroports (messages METAR et TAF).

Les stations disponibles sont représentées par des disques jaunes et rouges sur la carte.

Passer la souris dessus pour voir le nom de la station.

Cliquer dessus pour voir les observations et prévisions météorologiques.

Pour changer de carte: cliquez sur les boutons verts avec une croix noire pour zoomer, sur le bouton vert avec un tiret pour effectuer un zoom arrière, ou sur les flèches vertes pour les cartes adjacentes.


METAR-TAF: